sensor_id;sensor_type;location;lat;lon;timestamp;temperature;humidity
9723;DHT22;4900;49.306;8.500;2023-04-29T00:00:29;14.11;80.41
9723;DHT22;4900;49.306;8.500;2023-04-29T00:02:55;14.12;80.56
9723;DHT22;4900;49.306;8.500;2023-04-29T00:05:20;14.08;80.84
9723;DHT22;4900;49.306;8.500;2023-04-29T00:07:45;14.09;81.00
9723;DHT22;4900;49.306;8.500;2023-04-29T00:10:11;14.08;81.16
9723;DHT22;4900;49.306;8.500;2023-04-29T00:12:39;14.08;81.28
9723;DHT22;4900;49.306;8.500;2023-04-29T00:15:06;14.06;81.45
9723;DHT22;4900;49.306;8.500;2023-04-29T00:17:33;14.06;81.57
9723;DHT22;4900;49.306;8.500;2023-04-29T00:19:58;14.06;81.66
9723;DHT22;4900;49.306;8.500;2023-04-29T00:22:24;14.06;81.53
9723;DHT22;4900;49.306;8.500;2023-04-29T00:24:49;14.06;81.48
9723;DHT22;4900;49.306;8.500;2023-04-29T00:27:15;14.04;81.28
9723;DHT22;4900;49.306;8.500;2023-04-29T00:29:42;14.02;81.22
9723;DHT22;4900;49.306;8.500;2023-04-29T00:32:07;13.95;81.05
9723;DHT22;4900;49.306;8.500;2023-04-29T00:34:33;13.95;81.07
9723;DHT22;4900;49.306;8.500;2023-04-29T00:36:58;13.91;80.90
9723;DHT22;4900;49.306;8.500;2023-04-29T00:39:24;13.87;80.97
9723;DHT22;4900;49.306;8.500;2023-04-29T00:41:50;13.86;80.87
9723;DHT22;4900;49.306;8.500;2023-04-29T00:44:16;13.83;80.89
9723;DHT22;4900;49.306;8.500;2023-04-29T00:46:41;13.83;80.92
9723;DHT22;4900;49.306;8.500;2023-04-29T00:49:07;13.83;80.93
9723;DHT22;4900;49.306;8.500;2023-04-29T00:51:33;13.81;81.05
9723;DHT22;4900;49.306;8.500;2023-04-29T00:54:00;13.80;81.19
9723;DHT22;4900;49.306;8.500;2023-04-29T00:56:28;13.83;81.23
9723;DHT22;4900;49.306;8.500;2023-04-29T00:58:56;13.81;81.43
9723;DHT22;4900;49.306;8.500;2023-04-29T01:01:22;13.86;81.50
9723;DHT22;4900;49.306;8.500;2023-04-29T01:03:49;13.88;81.47
9723;DHT22;4900;49.306;8.500;2023-04-29T01:10:09;13.84;81.53
9723;DHT22;4900;49.306;8.500;2023-04-29T01:15:48;13.80;81.34
9723;DHT22;4900;49.306;8.500;2023-04-29T01:18:25;13.80;81.46
9723;DHT22;4900;49.306;8.500;2023-04-29T01:20:51;13.81;81.54
9723;DHT22;4900;49.306;8.500;2023-04-29T01:23:17;13.86;81.86
9723;DHT22;4900;49.306;8.500;2023-04-29T01:25:42;13.88;82.18
9723;DHT22;4900;49.306;8.500;2023-04-29T01:28:41;13.90;82.61
9723;DHT22;4900;49.306;8.500;2023-04-29T01:31:19;13.91;82.69
9723;DHT22;4900;49.306;8.500;2023-04-29T01:39:02;14.08;83.19
9723;DHT22;4900;49.306;8.500;2023-04-29T01:41:37;14.11;83.16
9723;DHT22;4900;49.306;8.500;2023-04-29T01:44:07;14.12;83.18
9723;DHT22;4900;49.306;8.500;2023-04-29T01:46:32;14.14;83.27
9723;DHT22;4900;49.306;8.500;2023-04-29T01:48:59;14.18;83.47
9723;DHT22;4900;49.306;8.500;2023-04-29T01:51:25;14.19;83.45
9723;DHT22;4900;49.306;8.500;2023-04-29T01:53:50;14.21;83.48
9723;DHT22;4900;49.306;8.500;2023-04-29T01:56:16;14.23;83.52
9723;DHT22;4900;49.306;8.500;2023-04-29T01:58:41;14.26;83.56
9723;DHT22;4900;49.306;8.500;2023-04-29T02:01:07;14.30;83.57
9723;DHT22;4900;49.306;8.500;2023-04-29T02:03:34;14.32;83.53
9723;DHT22;4900;49.306;8.500;2023-04-29T02:06:00;14.37;83.53
9723;DHT22;4900;49.306;8.500;2023-04-29T02:08:26;14.36;83.48
9723;DHT22;4900;49.306;8.500;2023-04-29T02:10:56;14.37;83.53
9723;DHT22;4900;49.306;8.500;2023-04-29T02:13:21;14.39;83.47
9723;DHT22;4900;49.306;8.500;2023-04-29T02:15:47;14.42;83.41
9723;DHT22;4900;49.306;8.500;2023-04-29T02:18:13;14.42;83.35
9723;DHT22;4900;49.306;8.500;2023-04-29T02:20:38;14.39;83.33
9723;DHT22;4900;49.306;8.500;2023-04-29T02:23:04;14.40;83.25
9723;DHT22;4900;49.306;8.500;2023-04-29T02:25:29;14.40;83.21
9723;DHT22;4900;49.306;8.500;2023-04-29T02:27:55;14.42;83.11
9723;DHT22;4900;49.306;8.500;2023-04-29T02:30:20;14.42;82.95
9723;DHT22;4900;49.306;8.500;2023-04-29T02:32:46;14.37;82.82
9723;DHT22;4900;49.306;8.500;2023-04-29T02:35:11;14.37;82.81
9723;DHT22;4900;49.306;8.500;2023-04-29T02:37:37;14.37;82.91
9723;DHT22;4900;49.306;8.500;2023-04-29T02:40:03;14.36;82.95
9723;DHT22;4900;49.306;8.500;2023-04-29T02:42:29;14.40;82.94
9723;DHT22;4900;49.306;8.500;2023-04-29T02:44:54;14.42;82.96
9723;DHT22;4900;49.306;8.500;2023-04-29T02:47:20;14.43;83.01
9723;DHT22;4900;49.306;8.500;2023-04-29T02:49:46;14.43;83.04
9723;DHT22;4900;49.306;8.500;2023-04-29T02:52:11;14.44;83.07
9723;DHT22;4900;49.306;8.500;2023-04-29T02:54:37;14.44;83.13
9723;DHT22;4900;49.306;8.500;2023-04-29T02:57:02;14.46;83.20
9723;DHT22;4900;49.306;8.500;2023-04-29T02:59:28;14.46;83.30
9723;DHT22;4900;49.306;8.500;2023-04-29T03:01:53;14.50;83.35
9723;DHT22;4900;49.306;8.500;2023-04-29T03:04:19;14.50;83.34
9723;DHT22;4900;49.306;8.500;2023-04-29T03:06:44;14.48;83.42
9723;DHT22;4900;49.306;8.500;2023-04-29T03:09:10;14.49;83.56
9723;DHT22;4900;49.306;8.500;2023-04-29T03:11:37;14.48;83.54
9723;DHT22;4900;49.306;8.500;2023-04-29T03:14:03;14.49;83.47
9723;DHT22;4900;49.306;8.500;2023-04-29T03:16:29;14.50;83.39
9723;DHT22;4900;49.306;8.500;2023-04-29T03:18:54;14.49;83.29
9723;DHT22;4900;49.306;8.500;2023-04-29T03:21:19;14.48;83.14
9723;DHT22;4900;49.306;8.500;2023-04-29T03:23:45;14.46;83.05
9723;DHT22;4900;49.306;8.500;2023-04-29T03:26:10;14.42;82.94
9723;DHT22;4900;49.306;8.500;2023-04-29T03:28:36;14.42;82.82
9723;DHT22;4900;49.306;8.500;2023-04-29T03:31:01;14.39;82.77
9723;DHT22;4900;49.306;8.500;2023-04-29T03:33:27;14.33;82.76
9723;DHT22;4900;49.306;8.500;2023-04-29T03:35:52;14.33;82.72
9723;DHT22;4900;49.306;8.500;2023-04-29T03:38:18;14.29;82.62
9723;DHT22;4900;49.306;8.500;2023-04-29T03:40:44;14.26;82.42
9723;DHT22;4900;49.306;8.500;2023-04-29T03:43:10;14.19;82.22
9723;DHT22;4900;49.306;8.500;2023-04-29T03:45:36;14.14;81.96
9723;DHT22;4900;49.306;8.500;2023-04-29T03:48:01;14.05;81.84
9723;DHT22;4900;49.306;8.500;2023-04-29T03:50:28;14.00;81.61
9723;DHT22;4900;49.306;8.500;2023-04-29T03:52:54;13.91;81.48
9723;DHT22;4900;49.306;8.500;2023-04-29T03:55:19;13.86;81.46
9723;DHT22;4900;49.306;8.500;2023-04-29T03:57:45;13.80;81.42
9723;DHT22;4900;49.306;8.500;2023-04-29T04:00:11;13.74;81.43
9723;DHT22;4900;49.306;8.500;2023-04-29T04:02:36;13.69;81.57
9723;DHT22;4900;49.306;8.500;2023-04-29T04:05:02;13.64;81.48
9723;DHT22;4900;49.306;8.500;2023-04-29T04:07:27;13.57;81.50
9723;DHT22;4900;49.306;8.500;2023-04-29T04:09:53;13.52;81.50
9723;DHT22;4900;49.306;8.500;2023-04-29T04:12:18;13.50;81.50
9723;DHT22;4900;49.306;8.500;2023-04-29T04:14:43;13.47;81.58
9723;DHT22;4900;49.306;8.500;2023-04-29T04:17:09;13.50;81.61
9723;DHT22;4900;49.306;8.500;2023-04-29T04:19:34;13.50;81.62
9723;DHT22;4900;49.306;8.500;2023-04-29T04:22:02;13.49;81.64
9723;DHT22;4900;49.306;8.500;2023-04-29T04:24:27;13.49;81.56
9723;DHT22;4900;49.306;8.500;2023-04-29T04:26:53;13.50;81.49
9723;DHT22;4900;49.306;8.500;2023-04-29T04:29:18;13.46;81.42
9723;DHT22;4900;49.306;8.500;2023-04-29T04:31:44;13.46;81.30
9723;DHT22;4900;49.306;8.500;2023-04-29T04:34:09;13.40;81.20
9723;DHT22;4900;49.306;8.500;2023-04-29T04:36:34;13.38;81.13
9723;DHT22;4900;49.306;8.500;2023-04-29T04:39:00;13.36;80.98
9723;DHT22;4900;49.306;8.500;2023-04-29T04:41:25;13.35;80.84
9723;DHT22;4900;49.306;8.500;2023-04-29T04:43:51;13.32;80.84
9723;DHT22;4900;49.306;8.500;2023-04-29T04:46:16;13.29;80.72
9723;DHT22;4900;49.306;8.500;2023-04-29T04:48:42;13.26;80.63
9723;DHT22;4900;49.306;8.500;2023-04-29T04:51:11;13.26;80.53
9723;DHT22;4900;49.306;8.500;2023-04-29T04:53:38;13.24;80.44
9723;DHT22;4900;49.306;8.500;2023-04-29T04:56:04;13.24;80.40
9723;DHT22;4900;49.306;8.500;2023-04-29T04:58:30;13.21;80.36
9723;DHT22;4900;49.306;8.500;2023-04-29T05:00:57;13.19;80.36
9723;DHT22;4900;49.306;8.500;2023-04-29T05:03:22;13.19;80.34
9723;DHT22;4900;49.306;8.500;2023-04-29T05:05:57;13.19;80.47
9723;DHT22;4900;49.306;8.500;2023-04-29T05:08:24;13.25;80.47
9723;DHT22;4900;49.306;8.500;2023-04-29T05:10:50;13.29;80.67
9723;DHT22;4900;49.306;8.500;2023-04-29T05:13:16;13.39;80.94
9723;DHT22;4900;49.306;8.500;2023-04-29T05:15:41;13.54;81.11
9723;DHT22;4900;49.306;8.500;2023-04-29T05:18:07;13.66;81.19
9723;DHT22;4900;49.306;8.500;2023-04-29T05:20:32;13.78;81.24
9723;DHT22;4900;49.306;8.500;2023-04-29T05:22:58;13.83;81.34
9723;DHT22;4900;49.306;8.500;2023-04-29T05:25:23;13.93;81.44
9723;DHT22;4900;49.306;8.500;2023-04-29T05:27:48;13.95;81.51
9723;DHT22;4900;49.306;8.500;2023-04-29T05:30:14;14.05;81.30
9723;DHT22;4900;49.306;8.500;2023-04-29T05:32:40;14.18;81.23
9723;DHT22;4900;49.306;8.500;2023-04-29T05:35:06;14.33;81.00
9723;DHT22;4900;49.306;8.500;2023-04-29T05:37:31;14.46;80.75
9723;DHT22;4900;49.306;8.500;2023-04-29T05:39:57;14.61;80.59
9723;DHT22;4900;49.306;8.500;2023-04-29T05:42:23;14.76;80.37
9723;DHT22;4900;49.306;8.500;2023-04-29T05:44:49;14.92;80.09
9723;DHT22;4900;49.306;8.500;2023-04-29T05:47:15;15.04;79.71
9723;DHT22;4900;49.306;8.500;2023-04-29T05:49:40;15.23;79.31
9723;DHT22;4900;49.306;8.500;2023-04-29T05:52:06;15.33;79.03
9723;DHT22;4900;49.306;8.500;2023-04-29T05:54:32;15.54;78.68
9723;DHT22;4900;49.306;8.500;2023-04-29T05:56:58;15.66;78.28
9723;DHT22;4900;49.306;8.500;2023-04-29T05:59:28;15.79;77.91
9723;DHT22;4900;49.306;8.500;2023-04-29T06:01:53;15.92;77.79
9723;DHT22;4900;49.306;8.500;2023-04-29T06:04:19;16.04;77.69
9723;DHT22;4900;49.306;8.500;2023-04-29T06:06:44;16.21;77.42
9723;DHT22;4900;49.306;8.500;2023-04-29T06:09:10;16.34;77.12
9723;DHT22;4900;49.306;8.500;2023-04-29T06:11:35;16.40;76.79
9723;DHT22;4900;49.306;8.500;2023-04-29T06:14:01;16.57;76.75
9723;DHT22;4900;49.306;8.500;2023-04-29T06:16:27;16.72;76.21
9723;DHT22;4900;49.306;8.500;2023-04-29T06:18:53;16.88;75.79
9723;DHT22;4900;49.306;8.500;2023-04-29T06:21:18;16.91;75.32
9723;DHT22;4900;49.306;8.500;2023-04-29T06:23:43;17.01;74.84
9723;DHT22;4900;49.306;8.500;2023-04-29T06:26:09;17.09;74.63
9723;DHT22;4900;49.306;8.500;2023-04-29T06:28:34;17.16;74.38
9723;DHT22;4900;49.306;8.500;2023-04-29T06:31:00;17.23;74.16
9723;DHT22;4900;49.306;8.500;2023-04-29T06:33:25;17.24;73.59
9723;DHT22;4900;49.306;8.500;2023-04-29T06:35:51;17.23;73.68
9723;DHT22;4900;49.306;8.500;2023-04-29T06:38:16;17.26;73.44
9723;DHT22;4900;49.306;8.500;2023-04-29T06:40:42;17.23;72.89
9723;DHT22;4900;49.306;8.500;2023-04-29T06:43:07;17.46;72.57
9723;DHT22;4900;49.306;8.500;2023-04-29T06:45:33;17.58;72.47
9723;DHT22;4900;49.306;8.500;2023-04-29T06:47:58;17.67;71.87
9723;DHT22;4900;49.306;8.500;2023-04-29T06:50:24;17.77;71.56
9723;DHT22;4900;49.306;8.500;2023-04-29T06:52:50;17.85;71.34
9723;DHT22;4900;49.306;8.500;2023-04-29T06:55:15;17.89;70.93
9723;DHT22;4900;49.306;8.500;2023-04-29T06:57:41;17.91;71.05
9723;DHT22;4900;49.306;8.500;2023-04-29T07:00:07;17.91;70.93
9723;DHT22;4900;49.306;8.500;2023-04-29T07:02:32;17.86;70.64
9723;DHT22;4900;49.306;8.500;2023-04-29T07:04:58;17.77;70.18
9723;DHT22;4900;49.306;8.500;2023-04-29T07:07:24;17.68;70.02
9723;DHT22;4900;49.306;8.500;2023-04-29T07:09:50;17.64;69.70
9723;DHT22;4900;49.306;8.500;2023-04-29T07:12:16;17.67;69.78
9723;DHT22;4900;49.306;8.500;2023-04-29T07:14:41;17.68;69.85
9723;DHT22;4900;49.306;8.500;2023-04-29T07:17:07;17.71;69.86
9723;DHT22;4900;49.306;8.500;2023-04-29T07:19:33;17.73;69.87
9723;DHT22;4900;49.306;8.500;2023-04-29T07:21:58;17.74;69.99
9723;DHT22;4900;49.306;8.500;2023-04-29T07:24:24;17.71;70.01
9723;DHT22;4900;49.306;8.500;2023-04-29T07:26:50;17.79;70.09
9723;DHT22;4900;49.306;8.500;2023-04-29T07:29:16;17.79;70.06
9723;DHT22;4900;49.306;8.500;2023-04-29T07:31:41;17.78;69.76
9723;DHT22;4900;49.306;8.500;2023-04-29T07:34:07;17.79;69.39
9723;DHT22;4900;49.306;8.500;2023-04-29T07:36:32;17.75;68.88
9723;DHT22;4900;49.306;8.500;2023-04-29T07:38:57;17.84;68.49
9723;DHT22;4900;49.306;8.500;2023-04-29T07:41:23;17.88;68.56
9723;DHT22;4900;49.306;8.500;2023-04-29T07:43:49;17.94;68.52
9723;DHT22;4900;49.306;8.500;2023-04-29T07:46:14;17.84;68.57
9723;DHT22;4900;49.306;8.500;2023-04-29T07:48:41;17.85;68.17
9723;DHT22;4900;49.306;8.500;2023-04-29T07:51:11;17.79;68.37
9723;DHT22;4900;49.306;8.500;2023-04-29T07:53:38;17.78;68.66
9723;DHT22;4900;49.306;8.500;2023-04-29T07:56:07;17.75;68.90
9723;DHT22;4900;49.306;8.500;2023-04-29T07:58:33;17.84;68.81
9723;DHT22;4900;49.306;8.500;2023-04-29T08:01:08;17.78;68.55
9723;DHT22;4900;49.306;8.500;2023-04-29T08:03:34;17.79;68.06
9723;DHT22;4900;49.306;8.500;2023-04-29T08:06:01;17.70;67.50
9723;DHT22;4900;49.306;8.500;2023-04-29T08:08:28;17.73;67.47
9723;DHT22;4900;49.306;8.500;2023-04-29T08:10:53;17.78;67.27
9723;DHT22;4900;49.306;8.500;2023-04-29T08:13:18;17.75;66.74
9723;DHT22;4900;49.306;8.500;2023-04-29T08:15:44;17.94;65.92
9723;DHT22;4900;49.306;8.500;2023-04-29T08:18:09;18.05;65.41
9723;DHT22;4900;49.306;8.500;2023-04-29T08:20:35;18.17;64.66
9723;DHT22;4900;49.306;8.500;2023-04-29T08:23:00;18.30;64.21
9723;DHT22;4900;49.306;8.500;2023-04-29T08:25:25;18.31;64.10
9723;DHT22;4900;49.306;8.500;2023-04-29T08:27:51;18.17;64.32
9723;DHT22;4900;49.306;8.500;2023-04-29T08:30:17;18.03;64.37
9723;DHT22;4900;49.306;8.500;2023-04-29T08:32:42;17.98;64.78
9723;DHT22;4900;49.306;8.500;2023-04-29T08:35:08;17.84;64.92
9723;DHT22;4900;49.306;8.500;2023-04-29T08:37:33;17.67;65.17
9723;DHT22;4900;49.306;8.500;2023-04-29T08:39:59;17.68;65.32
9723;DHT22;4900;49.306;8.500;2023-04-29T08:42:36;17.61;65.11
9723;DHT22;4900;49.306;8.500;2023-04-29T08:45:03;17.63;65.24
9723;DHT22;4900;49.306;8.500;2023-04-29T08:47:30;17.63;65.29
9723;DHT22;4900;49.306;8.500;2023-04-29T08:50:03;17.73;65.31
9723;DHT22;4900;49.306;8.500;2023-04-29T08:52:32;17.91;64.95
9723;DHT22;4900;49.306;8.500;2023-04-29T08:54:58;18.02;64.57
9723;DHT22;4900;49.306;8.500;2023-04-29T08:57:27;18.13;63.88
9723;DHT22;4900;49.306;8.500;2023-04-29T08:59:54;18.27;63.87
9723;DHT22;4900;49.306;8.500;2023-04-29T09:02:21;18.34;63.58
9723;DHT22;4900;49.306;8.500;2023-04-29T09:05:04;18.48;62.97
9723;DHT22;4900;49.306;8.500;2023-04-29T09:07:30;18.56;62.71
9723;DHT22;4900;49.306;8.500;2023-04-29T09:09:56;18.54;62.51
9723;DHT22;4900;49.306;8.500;2023-04-29T09:12:23;18.43;62.44
9723;DHT22;4900;49.306;8.500;2023-04-29T09:14:48;18.53;61.84
9723;DHT22;4900;49.306;8.500;2023-04-29T09:17:14;18.51;61.91
9723;DHT22;4900;49.306;8.500;2023-04-29T09:19:41;18.57;61.64
9723;DHT22;4900;49.306;8.500;2023-04-29T09:22:08;18.93;61.60
9723;DHT22;4900;49.306;8.500;2023-04-29T09:24:33;18.96;61.36
9723;DHT22;4900;49.306;8.500;2023-04-29T09:26:59;19.06;60.79
9723;DHT22;4900;49.306;8.500;2023-04-29T09:29:27;19.07;60.52
9723;DHT22;4900;49.306;8.500;2023-04-29T09:31:53;19.00;60.18
9723;DHT22;4900;49.306;8.500;2023-04-29T09:34:33;18.89;60.28
9723;DHT22;4900;49.306;8.500;2023-04-29T09:37:22;18.82;60.56
9723;DHT22;4900;49.306;8.500;2023-04-29T09:39:48;18.64;60.82
9723;DHT22;4900;49.306;8.500;2023-04-29T09:42:13;18.63;60.69
9723;DHT22;4900;49.306;8.500;2023-04-29T09:44:40;18.48;60.54
9723;DHT22;4900;49.306;8.500;2023-04-29T09:47:08;18.50;60.40
9723;DHT22;4900;49.306;8.500;2023-04-29T09:49:39;18.40;60.40
9723;DHT22;4900;49.306;8.500;2023-04-29T09:52:14;18.41;60.71
9723;DHT22;4900;49.306;8.500;2023-04-29T09:54:42;18.26;60.18
9723;DHT22;4900;49.306;8.500;2023-04-29T09:57:09;18.06;60.61
9723;DHT22;4900;49.306;8.500;2023-04-29T09:59:37;17.98;60.78
9723;DHT22;4900;49.306;8.500;2023-04-29T10:02:10;17.99;60.80
9723;DHT22;4900;49.306;8.500;2023-04-29T10:04:39;17.92;60.85
9723;DHT22;4900;49.306;8.500;2023-04-29T10:07:05;18.05;60.74
9723;DHT22;4900;49.306;8.500;2023-04-29T10:09:32;18.26;60.57
9723;DHT22;4900;49.306;8.500;2023-04-29T10:11:59;18.41;60.42
9723;DHT22;4900;49.306;8.500;2023-04-29T10:14:26;18.56;59.80
9723;DHT22;4900;49.306;8.500;2023-04-29T10:17:02;18.91;58.49
9723;DHT22;4900;49.306;8.500;2023-04-29T10:20:03;19.04;57.46
9723;DHT22;4900;49.306;8.500;2023-04-29T10:22:43;19.54;56.76
9723;DHT22;4900;49.306;8.500;2023-04-29T10:25:10;19.85;56.47
9723;DHT22;4900;49.306;8.500;2023-04-29T10:27:36;20.20;56.04
9723;DHT22;4900;49.306;8.500;2023-04-29T10:30:03;20.62;54.74
9723;DHT22;4900;49.306;8.500;2023-04-29T10:32:33;21.07;54.30
9723;DHT22;4900;49.306;8.500;2023-04-29T10:35:01;22.09;53.34
9723;DHT22;4900;49.306;8.500;2023-04-29T10:37:27;22.90;51.83
9723;DHT22;4900;49.306;8.500;2023-04-29T10:42:35;24.34;49.19
9723;DHT22;4900;49.306;8.500;2023-04-29T10:45:26;24.71;48.74
9723;DHT22;4900;49.306;8.500;2023-04-29T10:53:16;24.83;46.78
9723;DHT22;4900;49.306;8.500;2023-04-29T10:55:46;25.05;46.70
9723;DHT22;4900;49.306;8.500;2023-04-29T10:58:43;24.90;46.08
9723;DHT22;4900;49.306;8.500;2023-04-29T11:01:14;24.64;46.09
9723;DHT22;4900;49.306;8.500;2023-04-29T11:06:21;24.50;45.82
9723;DHT22;4900;49.306;8.500;2023-04-29T11:08:47;24.37;46.22
9723;DHT22;4900;49.306;8.500;2023-04-29T11:11:12;24.21;46.44
9723;DHT22;4900;49.306;8.500;2023-04-29T11:13:39;24.27;45.33
9723;DHT22;4900;49.306;8.500;2023-04-29T11:16:06;24.20;46.39
9723;DHT22;4900;49.306;8.500;2023-04-29T11:18:33;23.85;45.95
9723;DHT22;4900;49.306;8.500;2023-04-29T11:23:33;23.47;46.63
9723;DHT22;4900;49.306;8.500;2023-04-29T11:26:00;23.31;46.53
9723;DHT22;4900;49.306;8.500;2023-04-29T11:28:30;23.40;46.93
9723;DHT22;4900;49.306;8.500;2023-04-29T11:30:56;23.24;47.55
9723;DHT22;4900;49.306;8.500;2023-04-29T11:33:22;23.12;47.57
9723;DHT22;4900;49.306;8.500;2023-04-29T11:35:48;23.15;47.45
9723;DHT22;4900;49.306;8.500;2023-04-29T11:38:14;23.22;47.60
9723;DHT22;4900;49.306;8.500;2023-04-29T11:40:49;23.40;47.29
9723;DHT22;4900;49.306;8.500;2023-04-29T11:43:19;23.31;46.65
9723;DHT22;4900;49.306;8.500;2023-04-29T11:45:45;23.35;45.95
9723;DHT22;4900;49.306;8.500;2023-04-29T11:48:21;23.30;46.33
9723;DHT22;4900;49.306;8.500;2023-04-29T11:50:49;23.37;45.81
9723;DHT22;4900;49.306;8.500;2023-04-29T11:53:18;23.48;45.31
9723;DHT22;4900;49.306;8.500;2023-04-29T11:55:44;23.34;45.41
9723;DHT22;4900;49.306;8.500;2023-04-29T11:58:10;23.72;45.37
9723;DHT22;4900;49.306;8.500;2023-04-29T12:00:36;23.72;45.21
9723;DHT22;4900;49.306;8.500;2023-04-29T12:03:12;23.33;45.13
9723;DHT22;4900;49.306;8.500;2023-04-29T12:05:38;23.34;46.18
9723;DHT22;4900;49.306;8.500;2023-04-29T13:16:05;22.48;47.02
9723;DHT22;4900;49.306;8.500;2023-04-29T13:18:30;22.69;47.09
9723;DHT22;4900;49.306;8.500;2023-04-29T13:20:56;22.41;47.56
9723;DHT22;4900;49.306;8.500;2023-04-29T13:23:22;22.68;47.56
9723;DHT22;4900;49.306;8.500;2023-04-29T13:25:50;22.41;47.72
9723;DHT22;4900;49.306;8.500;2023-04-29T13:28:15;22.37;47.78
9723;DHT22;4900;49.306;8.500;2023-04-29T13:30:41;22.09;48.12
9723;DHT22;4900;49.306;8.500;2023-04-29T13:33:07;22.12;48.26
9723;DHT22;4900;49.306;8.500;2023-04-29T13:35:32;22.10;48.38
9723;DHT22;4900;49.306;8.500;2023-04-29T13:38:00;22.06;48.50
9723;DHT22;4900;49.306;8.500;2023-04-29T13:40:26;22.06;48.57
9723;DHT22;4900;49.306;8.500;2023-04-29T13:42:52;22.08;48.90
9723;DHT22;4900;49.306;8.500;2023-04-29T13:45:17;21.98;49.11
9723;DHT22;4900;49.306;8.500;2023-04-29T13:47:42;21.65;49.01
9723;DHT22;4900;49.306;8.500;2023-04-29T13:50:08;21.58;49.06
9723;DHT22;4900;49.306;8.500;2023-04-29T13:52:34;21.43;49.19
9723;DHT22;4900;49.306;8.500;2023-04-29T13:55:00;21.51;49.33
9723;DHT22;4900;49.306;8.500;2023-04-29T13:57:25;21.44;49.27
9723;DHT22;4900;49.306;8.500;2023-04-29T13:59:52;21.53;49.26
9723;DHT22;4900;49.306;8.500;2023-04-29T14:02:19;21.54;49.38
9723;DHT22;4900;49.306;8.500;2023-04-29T14:04:45;21.68;49.67
9723;DHT22;4900;49.306;8.500;2023-04-29T14:07:10;21.79;49.95
9723;DHT22;4900;49.306;8.500;2023-04-29T14:09:36;21.66;50.04
9723;DHT22;4900;49.306;8.500;2023-04-29T14:12:01;21.57;49.82
9723;DHT22;4900;49.306;8.500;2023-04-29T14:14:26;21.43;49.55
9723;DHT22;4900;49.306;8.500;2023-04-29T14:16:52;21.37;49.70
9723;DHT22;4900;49.306;8.500;2023-04-29T14:19:17;21.38;49.54
9723;DHT22;4900;49.306;8.500;2023-04-29T14:21:43;21.30;49.90
9723;DHT22;4900;49.306;8.500;2023-04-29T14:24:08;21.27;50.05
9723;DHT22;4900;49.306;8.500;2023-04-29T14:26:34;21.46;49.91
9723;DHT22;4900;49.306;8.500;2023-04-29T14:29:00;21.41;49.96
9723;DHT22;4900;49.306;8.500;2023-04-29T14:31:27;21.47;49.21
9723;DHT22;4900;49.306;8.500;2023-04-29T14:33:54;21.34;49.39
9723;DHT22;4900;49.306;8.500;2023-04-29T14:36:19;21.40;49.47
9723;DHT22;4900;49.306;8.500;2023-04-29T14:38:45;21.11;49.51
9723;DHT22;4900;49.306;8.500;2023-04-29T14:41:10;20.88;49.36
9723;DHT22;4900;49.306;8.500;2023-04-29T14:43:36;21.04;49.38
9723;DHT22;4900;49.306;8.500;2023-04-29T14:46:01;21.04;49.66
9723;DHT22;4900;49.306;8.500;2023-04-29T14:48:27;21.24;49.44
9723;DHT22;4900;49.306;8.500;2023-04-29T14:50:53;21.00;49.90
9723;DHT22;4900;49.306;8.500;2023-04-29T14:53:19;21.02;49.85
9723;DHT22;4900;49.306;8.500;2023-04-29T14:55:45;21.16;49.84
9723;DHT22;4900;49.306;8.500;2023-04-29T14:58:11;21.34;50.09
9723;DHT22;4900;49.306;8.500;2023-04-29T15:00:37;21.48;49.95
9723;DHT22;4900;49.306;8.500;2023-04-29T15:03:03;21.54;49.68
9723;DHT22;4900;49.306;8.500;2023-04-29T15:05:29;21.55;49.60
9723;DHT22;4900;49.306;8.500;2023-04-29T15:07:55;21.40;49.71
9723;DHT22;4900;49.306;8.500;2023-04-29T15:10:22;21.40;49.77
9723;DHT22;4900;49.306;8.500;2023-04-29T15:12:48;21.17;49.91
9723;DHT22;4900;49.306;8.500;2023-04-29T15:15:13;21.11;50.18
9723;DHT22;4900;49.306;8.500;2023-04-29T15:17:39;21.11;50.18
9723;DHT22;4900;49.306;8.500;2023-04-29T15:20:05;21.11;50.02
9723;DHT22;4900;49.306;8.500;2023-04-29T15:22:31;20.85;49.92
9723;DHT22;4900;49.306;8.500;2023-04-29T15:24:57;20.69;50.47
9723;DHT22;4900;49.306;8.500;2023-04-29T15:27:22;20.59;50.67
9723;DHT22;4900;49.306;8.500;2023-04-29T15:29:48;20.68;52.46
9723;DHT22;4900;49.306;8.500;2023-04-29T15:32:13;21.26;53.08
9723;DHT22;4900;49.306;8.500;2023-04-29T15:34:39;22.00;53.10
9723;DHT22;4900;49.306;8.500;2023-04-29T15:37:04;22.54;49.64
9723;DHT22;4900;49.306;8.500;2023-04-29T15:39:30;23.12;48.64
9723;DHT22;4900;49.306;8.500;2023-04-29T15:41:55;23.52;47.98
9723;DHT22;4900;49.306;8.500;2023-04-29T15:44:22;23.69;46.58
9723;DHT22;4900;49.306;8.500;2023-04-29T15:46:48;23.78;45.84
9723;DHT22;4900;49.306;8.500;2023-04-29T15:49:13;23.84;45.59
9723;DHT22;4900;49.306;8.500;2023-04-29T15:51:38;24.43;46.13
9723;DHT22;4900;49.306;8.500;2023-04-29T15:54:04;24.83;45.12
9723;DHT22;4900;49.306;8.500;2023-04-29T15:56:29;25.07;43.70
9723;DHT22;4900;49.306;8.500;2023-04-29T15:58:55;25.20;43.35
9723;DHT22;4900;49.306;8.500;2023-04-29T16:01:20;25.10;42.48
9723;DHT22;4900;49.306;8.500;2023-04-29T16:03:46;24.95;42.34
9723;DHT22;4900;49.306;8.500;2023-04-29T16:06:11;24.76;42.22
9723;DHT22;4900;49.306;8.500;2023-04-29T16:08:37;24.30;42.12
9723;DHT22;4900;49.306;8.500;2023-04-29T16:11:02;23.99;42.34
9723;DHT22;4900;49.306;8.500;2023-04-29T16:13:27;23.69;42.78
9723;DHT22;4900;49.306;8.500;2023-04-29T16:15:53;23.48;43.29
9723;DHT22;4900;49.306;8.500;2023-04-29T16:18:19;23.26;43.67
9723;DHT22;4900;49.306;8.500;2023-04-29T16:20:44;23.03;44.18
9723;DHT22;4900;49.306;8.500;2023-04-29T16:23:10;22.82;44.57
9723;DHT22;4900;49.306;8.500;2023-04-29T16:25:35;22.53;45.20
9723;DHT22;4900;49.306;8.500;2023-04-29T16:28:01;22.08;45.97
9723;DHT22;4900;49.306;8.500;2023-04-29T16:30:26;21.92;46.72
9723;DHT22;4900;49.306;8.500;2023-04-29T16:32:52;21.69;47.54
9723;DHT22;4900;49.306;8.500;2023-04-29T16:35:17;21.10;48.61
9723;DHT22;4900;49.306;8.500;2023-04-29T16:37:49;20.81;49.54
9723;DHT22;4900;49.306;8.500;2023-04-29T16:40:14;20.55;50.28
9723;DHT22;4900;49.306;8.500;2023-04-29T16:42:39;20.13;51.49
9723;DHT22;4900;49.306;8.500;2023-04-29T16:45:05;19.85;52.15
9723;DHT22;4900;49.306;8.500;2023-04-29T16:47:31;19.64;52.91
9723;DHT22;4900;49.306;8.500;2023-04-29T16:49:56;19.41;53.57
9723;DHT22;4900;49.306;8.500;2023-04-29T16:52:22;19.14;54.23
9723;DHT22;4900;49.306;8.500;2023-04-29T16:54:48;18.89;54.69
9723;DHT22;4900;49.306;8.500;2023-04-29T16:57:13;18.85;54.79
9723;DHT22;4900;49.306;8.500;2023-04-29T16:59:38;18.64;55.34
9723;DHT22;4900;49.306;8.500;2023-04-29T17:02:04;18.57;55.74
9723;DHT22;4900;49.306;8.500;2023-04-29T17:04:30;18.44;56.13
9723;DHT22;4900;49.306;8.500;2023-04-29T17:06:55;18.46;56.17
9723;DHT22;4900;49.306;8.500;2023-04-29T17:09:20;18.36;56.57
9723;DHT22;4900;49.306;8.500;2023-04-29T17:11:50;18.29;56.85
9723;DHT22;4900;49.306;8.500;2023-04-29T17:14:16;18.23;57.20
9723;DHT22;4900;49.306;8.500;2023-04-29T17:16:41;18.10;57.54
9723;DHT22;4900;49.306;8.500;2023-04-29T17:19:07;18.12;57.56
9723;DHT22;4900;49.306;8.500;2023-04-29T17:21:32;18.13;57.42
9723;DHT22;4900;49.306;8.500;2023-04-29T17:23:58;18.06;57.80
9723;DHT22;4900;49.306;8.500;2023-04-29T17:26:23;18.06;57.77
9723;DHT22;4900;49.306;8.500;2023-04-29T17:28:48;18.06;57.92
9723;DHT22;4900;49.306;8.500;2023-04-29T17:31:14;18.06;58.06